sensor_id;sensor_type;location;lat;lon;timestamp;pressure;altitude;pressure_sealevel;temperature;humidity
74621;BME280;75998;47.550;19.254;2024-01-30T00:00:25;101543.38;;;-1.90;86.18
74621;BME280;75998;47.550;19.254;2024-01-30T00:02:51;101554.56;;;-1.86;86.45
74621;BME280;75998;47.550;19.254;2024-01-30T00:05:20;101554.78;;;-1.77;86.04
74621;BME280;75998;47.550;19.254;2024-01-30T00:07:45;101565.25;;;-1.67;86.51
74621;BME280;75998;47.550;19.254;2024-01-30T00:10:11;101557.78;;;-1.57;86.59
74621;BME280;75998;47.550;19.254;2024-01-30T00:12:36;101553.44;;;-1.60;86.92
74621;BME280;75998;47.550;19.254;2024-01-30T00:15:09;101558.09;;;-1.81;86.51
74621;BME280;75998;47.550;19.254;2024-01-30T00:17:36;101558.81;;;-1.88;86.98
74621;BME280;75998;47.550;19.254;2024-01-30T00:20:03;101553.38;;;-2.01;87.22
74621;BME280;75998;47.550;19.254;2024-01-30T00:22:39;101557.56;;;-2.04;86.99
74621;BME280;75998;47.550;19.254;2024-01-30T00:25:05;101548.09;;;-2.08;86.61
74621;BME280;75998;47.550;19.254;2024-01-30T00:27:33;101551.78;;;-1.96;86.77
74621;BME280;75998;47.550;19.254;2024-01-30T00:30:02;101561.38;;;-1.87;86.89
74621;BME280;75998;47.550;19.254;2024-01-30T00:32:33;101552.84;;;-1.86;86.87
74621;BME280;75998;47.550;19.254;2024-01-30T00:35:01;101539.72;;;-2.00;86.70
74621;BME280;75998;47.550;19.254;2024-01-30T00:37:27;101558.19;;;-1.78;86.48
74621;BME280;75998;47.550;19.254;2024-01-30T00:39:53;101558.03;;;-1.84;86.52
74621;BME280;75998;47.550;19.254;2024-01-30T00:42:19;101556.94;;;-1.94;86.75
74621;BME280;75998;47.550;19.254;2024-01-30T00:44:45;101560.94;;;-2.05;87.39
74621;BME280;75998;47.550;19.254;2024-01-30T00:47:10;101550.41;;;-2.18;86.84
74621;BME280;75998;47.550;19.254;2024-01-30T00:49:36;101556.50;;;-2.13;87.08
74621;BME280;75998;47.550;19.254;2024-01-30T00:52:02;101552.28;;;-2.10;87.16
74621;BME280;75998;47.550;19.254;2024-01-30T00:54:30;101561.75;;;-2.08;87.33
74621;BME280;75998;47.550;19.254;2024-01-30T00:56:58;101557.34;;;-2.14;87.28
74621;BME280;75998;47.550;19.254;2024-01-30T00:59:27;101561.63;;;-2.13;87.58
74621;BME280;75998;47.550;19.254;2024-01-30T01:01:57;101554.78;;;-2.14;87.73
74621;BME280;75998;47.550;19.254;2024-01-30T01:04:25;101558.03;;;-2.19;87.40
74621;BME280;75998;47.550;19.254;2024-01-30T01:06:52;101557.16;;;-2.21;87.17
74621;BME280;75998;47.550;19.254;2024-01-30T01:09:20;101555.38;;;-2.24;87.19
74621;BME280;75998;47.550;19.254;2024-01-30T01:11:45;101550.28;;;-2.22;87.52
74621;BME280;75998;47.550;19.254;2024-01-30T01:14:13;101552.91;;;-2.21;87.85
74621;BME280;75998;47.550;19.254;2024-01-30T01:16:41;101543.75;;;-2.11;87.61
74621;BME280;75998;47.550;19.254;2024-01-30T01:19:06;101547.25;;;-2.07;87.50
74621;BME280;75998;47.550;19.254;2024-01-30T01:21:37;101552.84;;;-1.87;87.70
74621;BME280;75998;47.550;19.254;2024-01-30T01:24:03;101552.44;;;-2.04;87.57
74621;BME280;75998;47.550;19.254;2024-01-30T01:26:29;101547.00;;;-2.17;86.92
74621;BME280;75998;47.550;19.254;2024-01-30T01:28:55;101547.63;;;-2.25;87.71
74621;BME280;75998;47.550;19.254;2024-01-30T01:31:20;101552.56;;;-2.34;87.63
74621;BME280;75998;47.550;19.254;2024-01-30T01:33:50;101551.03;;;-2.60;87.65
74621;BME280;75998;47.550;19.254;2024-01-30T01:36:19;101554.84;;;-2.77;87.50
74621;BME280;75998;47.550;19.254;2024-01-30T01:38:49;101549.19;;;-2.65;87.56
74621;BME280;75998;47.550;19.254;2024-01-30T01:41:14;101535.41;;;-2.70;87.24
74621;BME280;75998;47.550;19.254;2024-01-30T01:43:42;101537.91;;;-2.72;86.85
74621;BME280;75998;47.550;19.254;2024-01-30T01:46:11;101541.41;;;-2.70;87.10
74621;BME280;75998;47.550;19.254;2024-01-30T01:48:39;101548.53;;;-2.58;86.98
74621;BME280;75998;47.550;19.254;2024-01-30T01:51:08;101529.47;;;-2.69;87.05
74621;BME280;75998;47.550;19.254;2024-01-30T01:53:35;101527.94;;;-2.63;87.26
74621;BME280;75998;47.550;19.254;2024-01-30T01:56:00;101533.13;;;-2.60;87.13
74621;BME280;75998;47.550;19.254;2024-01-30T01:58:29;101533.81;;;-2.65;87.66
74621;BME280;75998;47.550;19.254;2024-01-30T02:00:56;101543.34;;;-2.61;87.61
74621;BME280;75998;47.550;19.254;2024-01-30T02:03:24;101543.28;;;-2.63;87.58
74621;BME280;75998;47.550;19.254;2024-01-30T02:05:53;101533.97;;;-2.61;87.97
74621;BME280;75998;47.550;19.254;2024-01-30T02:08:20;101521.78;;;-2.69;87.76
74621;BME280;75998;47.550;19.254;2024-01-30T02:10:45;101521.19;;;-2.59;88.11
74621;BME280;75998;47.550;19.254;2024-01-30T02:13:11;101522.06;;;-2.58;88.01
74621;BME280;75998;47.550;19.254;2024-01-30T02:15:39;101528.75;;;-2.64;88.02
74621;BME280;75998;47.550;19.254;2024-01-30T02:18:05;101528.78;;;-2.62;87.98
74621;BME280;75998;47.550;19.254;2024-01-30T02:20:31;101534.00;;;-2.59;88.33
74621;BME280;75998;47.550;19.254;2024-01-30T02:22:59;101537.13;;;-2.69;87.78
74621;BME280;75998;47.550;19.254;2024-01-30T02:25:39;101527.91;;;-2.64;87.77
74621;BME280;75998;47.550;19.254;2024-01-30T02:28:15;101532.84;;;-2.70;88.08
74621;BME280;75998;47.550;19.254;2024-01-30T02:30:47;101540.53;;;-2.70;88.15
74621;BME280;75998;47.550;19.254;2024-01-30T02:33:15;101539.78;;;-2.66;87.92
74621;BME280;75998;47.550;19.254;2024-01-30T02:35:41;101538.81;;;-2.71;88.10
74621;BME280;75998;47.550;19.254;2024-01-30T02:38:06;101532.00;;;-2.71;88.05
74621;BME280;75998;47.550;19.254;2024-01-30T02:40:38;101526.03;;;-2.70;88.12
74621;BME280;75998;47.550;19.254;2024-01-30T02:43:04;101531.91;;;-2.74;88.31
74621;BME280;75998;47.550;19.254;2024-01-30T02:45:30;101539.66;;;-2.71;88.63
74621;BME280;75998;47.550;19.254;2024-01-30T02:47:58;101534.72;;;-2.65;87.86
74621;BME280;75998;47.550;19.254;2024-01-30T02:50:29;101532.00;;;-2.71;87.69
74621;BME280;75998;47.550;19.254;2024-01-30T02:52:57;101534.63;;;-2.68;88.51
74621;BME280;75998;47.550;19.254;2024-01-30T02:55:25;101535.34;;;-2.72;88.43
74621;BME280;75998;47.550;19.254;2024-01-30T02:57:51;101534.38;;;-2.77;88.21
74621;BME280;75998;47.550;19.254;2024-01-30T03:00:22;101535.34;;;-2.73;88.40
74621;BME280;75998;47.550;19.254;2024-01-30T03:02:50;101536.88;;;-2.47;88.82
74621;BME280;75998;47.550;19.254;2024-01-30T03:05:15;101534.13;;;-2.54;88.70
74621;BME280;75998;47.550;19.254;2024-01-30T03:07:41;101534.75;;;-2.63;88.62
74621;BME280;75998;47.550;19.254;2024-01-30T03:10:07;101535.78;;;-2.56;88.38
74621;BME280;75998;47.550;19.254;2024-01-30T03:12:42;101536.97;;;-2.42;88.63
74621;BME280;75998;47.550;19.254;2024-01-30T03:15:07;101524.25;;;-2.39;88.69
74621;BME280;75998;47.550;19.254;2024-01-30T03:17:35;101524.50;;;-1.94;88.69
74621;BME280;75998;47.550;19.254;2024-01-30T03:20:04;101517.44;;;-2.02;88.38
74621;BME280;75998;47.550;19.254;2024-01-30T03:22:34;101532.16;;;-2.31;88.01
74621;BME280;75998;47.550;19.254;2024-01-30T03:25:03;101542.19;;;-2.39;87.81
74621;BME280;75998;47.550;19.254;2024-01-30T03:27:29;101521.28;;;-2.56;88.13
74621;BME280;75998;47.550;19.254;2024-01-30T03:29:55;101521.03;;;-2.65;87.96
74621;BME280;75998;47.550;19.254;2024-01-30T03:32:20;101521.03;;;-2.65;87.83
74621;BME280;75998;47.550;19.254;2024-01-30T03:34:46;101535.78;;;-2.56;88.18
74621;BME280;75998;47.550;19.254;2024-01-30T03:37:15;101534.63;;;-2.68;88.02
74621;BME280;75998;47.550;19.254;2024-01-30T03:39:45;101531.19;;;-2.68;88.31
74621;BME280;75998;47.550;19.254;2024-01-30T03:42:10;101511.53;;;-2.69;88.14
74621;BME280;75998;47.550;19.254;2024-01-30T03:44:36;101518.69;;;-2.57;88.44
74621;BME280;75998;47.550;19.254;2024-01-30T03:47:02;101512.53;;;-2.64;88.67
74621;BME280;75998;47.550;19.254;2024-01-30T03:49:36;101521.28;;;-2.56;88.67
74621;BME280;75998;47.550;19.254;2024-01-30T03:52:02;101516.06;;;-2.61;88.56
74621;BME280;75998;47.550;19.254;2024-01-30T03:54:42;101519.38;;;-2.30;88.30
74621;BME280;75998;47.550;19.254;2024-01-30T03:57:08;101515.66;;;-2.06;89.13
74621;BME280;75998;47.550;19.254;2024-01-30T03:59:33;101518.38;;;-2.00;88.94
74621;BME280;75998;47.550;19.254;2024-01-30T04:01:59;101518.66;;;-1.88;88.60
74621;BME280;75998;47.550;19.254;2024-01-30T04:04:25;101506.00;;;-1.82;88.28
74621;BME280;75998;47.550;19.254;2024-01-30T04:06:56;101512.22;;;-1.71;88.11
74621;BME280;75998;47.550;19.254;2024-01-30T04:09:22;101505.72;;;-1.93;87.91
74621;BME280;75998;47.550;19.254;2024-01-30T04:11:50;101513.81;;;-2.12;87.52
74621;BME280;75998;47.550;19.254;2024-01-30T04:14:15;101506.41;;;-2.36;87.86
74621;BME280;75998;47.550;19.254;2024-01-30T04:16:44;101497.72;;;-2.43;87.82
74621;BME280;75998;47.550;19.254;2024-01-30T04:19:09;101508.94;;;-2.38;88.25
74621;BME280;75998;47.550;19.254;2024-01-30T04:21:38;101500.94;;;-2.51;88.22
74621;BME280;75998;47.550;19.254;2024-01-30T04:24:06;101504.59;;;-2.42;88.68
74621;BME280;75998;47.550;19.254;2024-01-30T04:26:31;101505.72;;;-2.29;88.79
74621;BME280;75998;47.550;19.254;2024-01-30T04:29:05;101504.06;;;-2.28;88.29
74621;BME280;75998;47.550;19.254;2024-01-30T04:31:36;101511.94;;;-2.19;88.53
74621;BME280;75998;47.550;19.254;2024-01-30T04:34:05;101509.03;;;-2.33;88.07
74621;BME280;75998;47.550;19.254;2024-01-30T04:36:35;101505.13;;;-2.53;88.04
74621;BME280;75998;47.550;19.254;2024-01-30T04:39:00;101512.06;;;-2.49;88.38
74621;BME280;75998;47.550;19.254;2024-01-30T04:41:28;101512.72;;;-2.58;88.42
74621;BME280;75998;47.550;19.254;2024-01-30T04:43:56;101511.72;;;-2.63;88.41
74621;BME280;75998;47.550;19.254;2024-01-30T04:46:25;101509.00;;;-2.69;88.10
74621;BME280;75998;47.550;19.254;2024-01-30T04:48:53;101489.09;;;-2.81;87.93
74621;BME280;75998;47.550;19.254;2024-01-30T04:51:19;101488.25;;;-2.80;88.31
74621;BME280;75998;47.550;19.254;2024-01-30T04:53:47;101517.44;;;-2.72;88.61
74621;BME280;75998;47.550;19.254;2024-01-30T04:56:13;101523.66;;;-2.62;88.38
74621;BME280;75998;47.550;19.254;2024-01-30T04:58:39;101518.47;;;-2.65;87.96
74621;BME280;75998;47.550;19.254;2024-01-30T05:01:04;101522.94;;;-2.58;88.21
74621;BME280;75998;47.550;19.254;2024-01-30T05:03:33;101514.97;;;-2.69;88.62
74621;BME280;75998;47.550;19.254;2024-01-30T05:05:59;101521.69;;;-2.74;88.66
74621;BME280;75998;47.550;19.254;2024-01-30T05:08:24;101519.19;;;-2.71;88.67
74621;BME280;75998;47.550;19.254;2024-01-30T05:10:53;101524.09;;;-2.78;88.53
74621;BME280;75998;47.550;19.254;2024-01-30T05:13:21;101531.13;;;-2.71;88.90
74621;BME280;75998;47.550;19.254;2024-01-30T05:15:47;101531.25;;;-2.67;89.25
74621;BME280;75998;47.550;19.254;2024-01-30T05:18:15;101533.47;;;-2.79;88.87
74621;BME280;75998;47.550;19.254;2024-01-30T05:20:43;101533.53;;;-2.77;89.03
74621;BME280;75998;47.550;19.254;2024-01-30T05:23:09;101537.06;;;-2.72;88.55
74621;BME280;75998;47.550;19.254;2024-01-30T05:25:37;101527.66;;;-2.73;88.54
74621;BME280;75998;47.550;19.254;2024-01-30T05:28:11;101543.19;;;-2.67;88.71
74621;BME280;75998;47.550;19.254;2024-01-30T05:30:37;101544.53;;;-2.80;88.69
74621;BME280;75998;47.550;19.254;2024-01-30T05:33:05;101542.72;;;-2.84;88.65
74621;BME280;75998;47.550;19.254;2024-01-30T05:35:42;101555.44;;;-2.87;88.68
74621;BME280;75998;47.550;19.254;2024-01-30T05:38:11;101547.88;;;-2.83;88.69
74621;BME280;75998;47.550;19.254;2024-01-30T05:40:39;101552.91;;;-2.86;88.96
74621;BME280;75998;47.550;19.254;2024-01-30T05:43:07;101555.47;;;-2.86;88.85
74621;BME280;75998;47.550;19.254;2024-01-30T05:45:51;101558.75;;;-2.91;88.94
74621;BME280;75998;47.550;19.254;2024-01-30T05:48:18;101544.44;;;-2.85;89.18
74621;BME280;75998;47.550;19.254;2024-01-30T05:50:47;101552.59;;;-2.98;89.14
74621;BME280;75998;47.550;19.254;2024-01-30T05:53:12;101555.47;;;-2.86;89.16
74621;BME280;75998;47.550;19.254;2024-01-30T05:55:40;101555.44;;;-2.87;89.53
74621;BME280;75998;47.550;19.254;2024-01-30T05:58:06;101553.75;;;-2.87;89.72
74621;BME280;75998;47.550;19.254;2024-01-30T06:00:34;101560.00;;;-2.75;89.82
74621;BME280;75998;47.550;19.254;2024-01-30T06:03:09;101551.38;;;-2.79;89.59
74621;BME280;75998;47.550;19.254;2024-01-30T06:05:37;101553.31;;;-2.70;89.71
74621;BME280;75998;47.550;19.254;2024-01-30T06:08:08;101557.91;;;-2.90;89.35
74621;BME280;75998;47.550;19.254;2024-01-30T06:10:34;101568.22;;;-2.87;89.88
74621;BME280;75998;47.550;19.254;2024-01-30T06:13:11;101573.53;;;-2.81;89.67
74621;BME280;75998;47.550;19.254;2024-01-30T06:15:40;101572.84;;;-2.74;89.61
74621;BME280;75998;47.550;19.254;2024-01-30T06:18:08;101565.94;;;-2.78;89.52
74621;BME280;75998;47.550;19.254;2024-01-30T06:20:36;101563.47;;;-2.73;89.66
74621;BME280;75998;47.550;19.254;2024-01-30T06:23:05;101563.09;;;-2.55;89.66
74621;BME280;75998;47.550;19.254;2024-01-30T06:25:30;101564.88;;;-2.53;89.77
74621;BME280;75998;47.550;19.254;2024-01-30T06:27:59;101546.88;;;-2.56;89.22
74621;BME280;75998;47.550;19.254;2024-01-30T06:30:27;101564.13;;;-2.49;90.04
74621;BME280;75998;47.550;19.254;2024-01-30T06:32:55;101555.66;;;-2.46;89.40
74621;BME280;75998;47.550;19.254;2024-01-30T06:35:21;101558.28;;;-2.45;89.23
74621;BME280;75998;47.550;19.254;2024-01-30T06:37:47;101562.47;;;-2.47;89.30
74621;BME280;75998;47.550;19.254;2024-01-30T06:40:16;101574.59;;;-2.40;89.34
74621;BME280;75998;47.550;19.254;2024-01-30T06:42:41;101567.94;;;-2.33;89.44
74621;BME280;75998;47.550;19.254;2024-01-30T06:45:07;101572.97;;;-2.38;89.01
74621;BME280;75998;47.550;19.254;2024-01-30T06:47:33;101567.94;;;-2.33;88.92
74621;BME280;75998;47.550;19.254;2024-01-30T06:49:59;101572.22;;;-2.32;88.92
74621;BME280;75998;47.550;19.254;2024-01-30T06:52:27;101559.59;;;-2.26;89.10
74621;BME280;75998;47.550;19.254;2024-01-30T06:54:53;101567.31;;;-2.24;89.20
74621;BME280;75998;47.550;19.254;2024-01-30T06:57:18;101563.31;;;-2.13;89.33
74621;BME280;75998;47.550;19.254;2024-01-30T06:59:47;101566.03;;;-2.07;89.18
74621;BME280;75998;47.550;19.254;2024-01-30T07:02:16;101552.44;;;-2.04;88.85
74621;BME280;75998;47.550;19.254;2024-01-30T07:04:42;101566.34;;;-1.93;88.95
74621;BME280;75998;47.550;19.254;2024-01-30T07:07:08;101558.97;;;-1.79;88.83
74621;BME280;75998;47.550;19.254;2024-01-30T07:09:41;101568.69;;;-1.66;88.72
74621;BME280;75998;47.550;19.254;2024-01-30T07:12:06;101574.03;;;-1.57;88.15
74621;BME280;75998;47.550;19.254;2024-01-30T07:14:32;101569.88;;;-1.52;88.42
74621;BME280;75998;47.550;19.254;2024-01-30T07:16:57;101566.31;;;-1.19;88.37
74621;BME280;75998;47.550;19.254;2024-01-30T07:19:25;101566.47;;;-1.10;88.22
74621;BME280;75998;47.550;19.254;2024-01-30T07:21:53;101577.28;;;-0.84;87.98
74621;BME280;75998;47.550;19.254;2024-01-30T07:24:19;101555.91;;;-0.83;86.87
74621;BME280;75998;47.550;19.254;2024-01-30T07:26:44;101568.09;;;-0.71;86.30
74621;BME280;75998;47.550;19.254;2024-01-30T07:29:13;101568.34;;;-0.57;85.95
74621;BME280;75998;47.550;19.254;2024-01-30T07:31:38;101569.16;;;-0.11;84.97
74621;BME280;75998;47.550;19.254;2024-01-30T07:34:04;101573.66;;;0.01;84.12
74621;BME280;75998;47.550;19.254;2024-01-30T07:36:29;101569.63;;;0.18;83.24
74621;BME280;75998;47.550;19.254;2024-01-30T07:38:55;101546.84;;;0.41;82.92
74621;BME280;75998;47.550;19.254;2024-01-30T07:41:20;101561.69;;;0.62;81.35
74621;BME280;75998;47.550;19.254;2024-01-30T07:43:46;101546.84;;;0.41;82.26
74621;BME280;75998;47.550;19.254;2024-01-30T07:46:11;101567.09;;;0.80;81.90
74621;BME280;75998;47.550;19.254;2024-01-30T07:48:36;101559.66;;;1.03;81.57
74621;BME280;75998;47.550;19.254;2024-01-30T07:51:02;101549.13;;;1.69;80.03
74621;BME280;75998;47.550;19.254;2024-01-30T07:53:29;101556.00;;;1.68;79.91
74621;BME280;75998;47.550;19.254;2024-01-30T07:56:00;101557.84;;;1.81;78.31
74621;BME280;75998;47.550;19.254;2024-01-30T07:58:26;101546.94;;;2.16;77.89
74621;BME280;75998;47.550;19.254;2024-01-30T08:00:53;101544.25;;;2.01;77.05
74621;BME280;75998;47.550;19.254;2024-01-30T08:03:18;101552.69;;;1.81;78.48
74621;BME280;75998;47.550;19.254;2024-01-30T08:05:44;101542.53;;;2.00;78.16
74621;BME280;75998;47.550;19.254;2024-01-30T08:08:10;101546.91;;;2.11;78.15
74621;BME280;75998;47.550;19.254;2024-01-30T08:10:36;101561.66;;;2.31;77.58
74621;BME280;75998;47.550;19.254;2024-01-30T08:13:01;101562.53;;;2.34;77.05
74621;BME280;75998;47.550;19.254;2024-01-30T08:15:27;101568.84;;;2.84;75.19
74621;BME280;75998;47.550;19.254;2024-01-30T08:17:52;101561.06;;;2.72;75.49
74621;BME280;75998;47.550;19.254;2024-01-30T08:20:23;101561.22;;;3.16;74.42
74621;BME280;75998;47.550;19.254;2024-01-30T08:22:52;101563.72;;;2.92;74.92
74621;BME280;75998;47.550;19.254;2024-01-30T08:25:18;101563.63;;;2.69;75.47
74621;BME280;75998;47.550;19.254;2024-01-30T08:27:44;101552.69;;;3.48;74.05
74621;BME280;75998;47.550;19.254;2024-01-30T08:30:12;101563.03;;;3.74;72.57
74621;BME280;75998;47.550;19.254;2024-01-30T08:32:38;101555.19;;;3.16;74.54
74621;BME280;75998;47.550;19.254;2024-01-30T08:35:03;101566.47;;;3.64;73.08
74621;BME280;75998;47.550;19.254;2024-01-30T08:37:29;101570.81;;;3.77;73.38
74621;BME280;75998;47.550;19.254;2024-01-30T08:39:55;101553.59;;;3.78;72.31
74621;BME280;75998;47.550;19.254;2024-01-30T08:42:20;101577.47;;;2.94;74.23
74621;BME280;75998;47.550;19.254;2024-01-30T08:44:48;101568.09;;;3.14;74.46
74621;BME280;75998;47.550;19.254;2024-01-30T08:47:15;101579.44;;;3.65;72.90
74621;BME280;75998;47.550;19.254;2024-01-30T08:49:43;101577.69;;;3.55;72.77
74621;BME280;75998;47.550;19.254;2024-01-30T08:52:10;101572.56;;;3.81;72.51
74621;BME280;75998;47.550;19.254;2024-01-30T08:54:35;101572.53;;;3.99;71.90
74621;BME280;75998;47.550;19.254;2024-01-30T08:57:01;101574.28;;;3.78;73.14
74621;BME280;75998;47.550;19.254;2024-01-30T08:59:27;101572.53;;;4.16;72.59
74621;BME280;75998;47.550;19.254;2024-01-30T09:01:52;101575.13;;;3.95;71.76
74621;BME280;75998;47.550;19.254;2024-01-30T09:04:21;101557.88;;;3.89;73.44
74621;BME280;75998;47.550;19.254;2024-01-30T09:06:47;101567.38;;;3.80;73.09
74621;BME280;75998;47.550;19.254;2024-01-30T09:09:13;101545.78;;;3.48;73.88
74621;BME280;75998;47.550;19.254;2024-01-30T09:11:40;101543.97;;;4.64;71.40
74621;BME280;75998;47.550;19.254;2024-01-30T09:14:05;101551.88;;;3.81;73.42
74621;BME280;75998;47.550;19.254;2024-01-30T09:16:33;101561.34;;;3.74;73.08
74621;BME280;75998;47.550;19.254;2024-01-30T09:18:59;101553.56;;;3.58;74.93
74621;BME280;75998;47.550;19.254;2024-01-30T09:21:24;101561.28;;;4.42;73.17
74621;BME280;75998;47.550;19.254;2024-01-30T09:24:01;101561.34;;;3.96;72.96
74621;BME280;75998;47.550;19.254;2024-01-30T09:26:28;101560.44;;;4.26;72.18
74621;BME280;75998;47.550;19.254;2024-01-30T09:28:53;101551.00;;;3.85;73.01
74621;BME280;75998;47.550;19.254;2024-01-30T09:31:18;101566.50;;;4.07;73.68
74621;BME280;75998;47.550;19.254;2024-01-30T09:33:44;101566.44;;;3.36;75.36
74621;BME280;75998;47.550;19.254;2024-01-30T09:36:12;101556.16;;;3.71;74.44
74621;BME280;75998;47.550;19.254;2024-01-30T09:38:40;101557.03;;;3.99;73.18
74621;BME280;75998;47.550;19.254;2024-01-30T09:41:09;101557.03;;;3.86;73.97
74621;BME280;75998;47.550;19.254;2024-01-30T09:43:35;101569.00;;;3.38;75.71
74621;BME280;75998;47.550;19.254;2024-01-30T09:46:02;101548.38;;;3.50;75.08
74621;BME280;75998;47.550;19.254;2024-01-30T09:48:30;101557.91;;;4.08;73.59
74621;BME280;75998;47.550;19.254;2024-01-30T09:50:57;101564.78;;;4.12;73.05
74621;BME280;75998;47.550;19.254;2024-01-30T09:53:22;101559.56;;;4.27;73.19
74621;BME280;75998;47.550;19.254;2024-01-30T09:55:49;101544.91;;;4.32;72.31
74621;BME280;75998;47.550;19.254;2024-01-30T09:58:16;101558.56;;;4.91;70.59
74621;BME280;75998;47.550;19.254;2024-01-30T10:00:44;101562.13;;;4.53;71.85
74621;BME280;75998;47.550;19.254;2024-01-30T10:03:10;101561.31;;;4.16;72.50
74621;BME280;75998;47.550;19.254;2024-01-30T10:05:35;101550.97;;;4.22;72.13
74621;BME280;75998;47.550;19.254;2024-01-30T10:08:06;101560.94;;;5.32;69.39
74621;BME280;75998;47.550;19.254;2024-01-30T10:10:33;101566.50;;;4.05;72.77
74621;BME280;75998;47.550;19.254;2024-01-30T10:12:59;101564.78;;;4.12;72.18
74621;BME280;75998;47.550;19.254;2024-01-30T10:15:25;101576.00;;;3.85;73.72
74621;BME280;75998;47.550;19.254;2024-01-30T10:17:51;101568.22;;;4.03;74.76
74621;BME280;75998;47.550;19.254;2024-01-30T10:20:16;101550.97;;;4.04;71.93
74621;BME280;75998;47.550;19.254;2024-01-30T10:22:44;101558.75;;;3.71;74.41
74621;BME280;75998;47.550;19.254;2024-01-30T10:25:11;101552.66;;;4.40;73.53
74621;BME280;75998;47.550;19.254;2024-01-30T10:27:39;101534.50;;;4.52;72.45
74621;BME280;75998;47.550;19.254;2024-01-30T10:30:05;101543.00;;;4.89;70.16
74621;BME280;75998;47.550;19.254;2024-01-30T10:32:31;101528.16;;;5.19;69.64
74621;BME280;75998;47.550;19.254;2024-01-30T10:34:56;101542.75;;;5.38;67.47
74621;BME280;75998;47.550;19.254;2024-01-30T10:37:25;101539.19;;;5.55;67.34
74621;BME280;75998;47.550;19.254;2024-01-30T10:39:53;101524.94;;;4.74;70.20
74621;BME280;75998;47.550;19.254;2024-01-30T10:42:18;101533.53;;;4.79;70.70
74621;BME280;75998;47.550;19.254;2024-01-30T10:47:30;101524.63;;;5.32;67.43
74621;BME280;75998;47.550;19.254;2024-01-30T10:49:56;101511.38;;;5.77;66.14
74621;BME280;75998;47.550;19.254;2024-01-30T10:52:25;101509.00;;;5.48;66.54
74621;BME280;75998;47.550;19.254;2024-01-30T10:54:51;101484.97;;;5.21;66.49
74621;BME280;75998;47.550;19.254;2024-01-30T10:57:17;101504.44;;;5.76;65.85
74621;BME280;75998;47.550;19.254;2024-01-30T10:59:44;101498.72;;;5.32;67.27
74621;BME280;75998;47.550;19.254;2024-01-30T11:02:11;101508.38;;;5.06;65.88
74621;BME280;75998;47.550;19.254;2024-01-30T11:04:42;101504.72;;;5.39;67.51
74621;BME280;75998;47.550;19.254;2024-01-30T11:07:17;101500.44;;;5.32;66.83
74621;BME280;75998;47.550;19.254;2024-01-30T11:09:53;101490.25;;;5.07;67.50
74621;BME280;75998;47.550;19.254;2024-01-30T11:12:24;101504.97;;;4.99;66.72
74621;BME280;75998;47.550;19.254;2024-01-30T11:15:03;101483.56;;;5.88;65.19
74621;BME280;75998;47.550;19.254;2024-01-30T11:17:51;101492.72;;;5.27;66.27
74621;BME280;75998;47.550;19.254;2024-01-30T11:20:29;101502.25;;;6.25;64.60
74621;BME280;75998;47.550;19.254;2024-01-30T11:22:56;101496.88;;;5.50;65.56
74621;BME280;75998;47.550;19.254;2024-01-30T11:25:23;101492.53;;;5.52;65.04
74621;BME280;75998;47.550;19.254;2024-01-30T11:27:51;101483.75;;;5.68;64.53
74621;BME280;75998;47.550;19.254;2024-01-30T11:30:27;101482.41;;;6.21;63.64
74621;BME280;75998;47.550;19.254;2024-01-30T11:33:00;101480.91;;;5.99;64.81
74621;BME280;75998;47.550;19.254;2024-01-30T11:35:25;101485.63;;;6.42;62.95
74621;BME280;75998;47.550;19.254;2024-01-30T11:37:52;101469.25;;;5.44;64.09
74621;BME280;75998;47.550;19.254;2024-01-30T11:40:18;101470.56;;;5.94;64.16
74621;BME280;75998;47.550;19.254;2024-01-30T11:42:45;101468.06;;;5.82;64.36
74621;BME280;75998;47.550;19.254;2024-01-30T11:45:12;101475.53;;;5.14;66.65
74621;BME280;75998;47.550;19.254;2024-01-30T11:47:37;101476.38;;;5.13;67.30
74621;BME280;75998;47.550;19.254;2024-01-30T11:50:04;101474.50;;;5.35;65.55
74621;BME280;75998;47.550;19.254;2024-01-30T11:52:31;101470.28;;;6.23;64.23
74621;BME280;75998;47.550;19.254;2024-01-30T11:54:57;101466.28;;;6.67;62.84
74621;BME280;75998;47.550;19.254;2024-01-30T11:57:22;101464.81;;;5.60;63.39
74621;BME280;75998;47.550;19.254;2024-01-30T11:59:48;101450.88;;;5.70;63.10
74621;BME280;75998;47.550;19.254;2024-01-30T12:02:16;101450.00;;;5.71;63.64
74621;BME280;75998;47.550;19.254;2024-01-30T12:04:42;101450.25;;;5.44;64.41
74621;BME280;75998;47.550;19.254;2024-01-30T12:07:08;101446.16;;;6.14;62.99
74621;BME280;75998;47.550;19.254;2024-01-30T12:09:33;101433.09;;;5.23;65.50
74621;BME280;75998;47.550;19.254;2024-01-30T12:11:59;101426.25;;;5.17;66.27
74621;BME280;75998;47.550;19.254;2024-01-30T12:14:26;101435.72;;;5.21;65.69
74621;BME280;75998;47.550;19.254;2024-01-30T12:16:51;101433.16;;;5.18;66.72
74621;BME280;75998;47.550;19.254;2024-01-30T12:19:26;101431.91;;;5.62;64.74
74621;BME280;75998;47.550;19.254;2024-01-30T12:21:58;101425.75;;;5.75;64.65
74621;BME280;75998;47.550;19.254;2024-01-30T12:24:25;101431.63;;;5.96;63.90
74621;BME280;75998;47.550;19.254;2024-01-30T12:26:51;101417.09;;;5.78;62.70
74621;BME280;75998;47.550;19.254;2024-01-30T12:29:17;101426.41;;;5.99;61.95
74621;BME280;75998;47.550;19.254;2024-01-30T12:31:42;101411.81;;;5.87;61.98
74621;BME280;75998;47.550;19.254;2024-01-30T12:34:09;101423.81;;;5.99;62.72
74621;BME280;75998;47.550;19.254;2024-01-30T12:36:35;101414.19;;;6.08;62.27
74621;BME280;75998;47.550;19.254;2024-01-30T12:39:01;101407.53;;;5.81;62.32
74621;BME280;75998;47.550;19.254;2024-01-30T12:41:26;101414.97;;;6.15;61.55
74621;BME280;75998;47.550;19.254;2024-01-30T12:43:57;101413.53;;;5.86;61.44
74621;BME280;75998;47.550;19.254;2024-01-30T12:46:28;101408.06;;;6.14;61.68